Time;durP1;ratioP1;P1;durP2;ratioP2;P2;SDS_P1;SDS_P2;PMS_P1;PMS_P2;Temp;Humidity;BMP_temperature;BMP_pressure;BME280_temperature;BME280_humidity;BME280_pressure;Samples;Min_cycle;Max_cycle;Signal;HPM_P1;HPM_P2
2021/05/01 00:01:03;;;;;;;12.45;9.60;;;;;;;;;;4997018;28;20030;-61
2021/05/01 00:03:28;;;;;;;13.48;9.43;;;;;;;;;;4996493;28;20089;-61
2021/05/01 00:05:54;;;;;;;12.55;9.82;;;;;;;;;;4996828;28;20077;-61
2021/05/01 00:08:19;;;;;;;12.35;9.77;;;;;;;;;;4997029;28;20038;-62
2021/05/01 00:10:45;;;;;;;11.85;9.05;;;;;;;;;;4995879;28;21211;-62
2021/05/01 00:13:11;;;;;;;13.00;9.98;;;;;;;;;;5001419;28;20052;-61
2021/05/01 00:15:37;;;;;;;10.98;8.55;;;;;;;;;;4997153;28;20042;-61
2021/05/01 00:18:02;;;;;;;11.50;8.70;;;;;;;;;;5001749;28;20093;-62
2021/05/01 00:20:28;;;;;;;11.90;9.18;;;;;;;;;;4996043;28;21142;-61
2021/05/01 00:22:53;;;;;;;11.57;8.68;;;;;;;;;;4998038;28;20030;-62
2021/05/01 00:25:19;;;;;;;10.30;7.57;;;;;;;;;;4995908;28;20822;-61
2021/05/01 00:27:44;;;;;;;10.93;8.57;;;;;;;;;;4996378;28;20037;-62
2021/05/01 00:30:11;;;;;;;9.98;7.75;;;;;;;;;;4996478;28;20479;-61
2021/05/01 00:32:36;;;;;;;10.25;8.02;;;;;;;;;;4996229;28;20129;-61
2021/05/01 00:35:03;;;;;;;11.65;9.25;;;;;;;;;;4996393;28;20030;-61
2021/05/01 00:37:28;;;;;;;12.10;9.30;;;;;;;;;;4995532;28;20050;-61
2021/05/01 00:39:54;;;;;;;10.05;7.72;;;;;;;;;;5010305;28;20484;-62
2021/05/01 00:42:19;;;;;;;11.63;8.70;;;;;;;;;;4995135;28;20046;-61
2021/05/01 00:44:45;;;;;;;10.90;8.00;;;;;;;;;;5011246;28;20035;-61
2021/05/01 00:47:10;;;;;;;9.57;7.28;;;;;;;;;;4997502;28;20045;-62
2021/05/01 00:49:36;;;;;;;10.68;8.40;;;;;;;;;;4977328;28;20037;-61
2021/05/01 00:52:01;;;;;;;10.00;7.70;;;;;;;;;;4996328;28;20042;-61
2021/05/01 00:54:27;;;;;;;11.63;8.50;;;;;;;;;;4996215;28;20038;-61
2021/05/01 00:56:52;;;;;;;11.25;8.93;;;;;;;;;;4967560;28;20046;-61
2021/05/01 00:59:18;;;;;;;11.98;9.52;;;;;;;;;;4999861;28;20594;-61
2021/05/01 01:01:53;;;;;;;12.13;9.73;;;;;;;;;;4985299;28;20034;-61
2021/05/01 01:04:18;;;;;;;11.57;9.25;;;;;;;;;;5001552;28;20029;-62
2021/05/01 01:06:44;;;;;;;10.88;8.52;;;;;;;;;;5010830;28;20498;-62
2021/05/01 01:09:10;;;;;;;13.68;10.48;;;;;;;;;;5001252;28;20495;-61
2021/05/01 01:11:36;;;;;;;11.35;8.50;;;;;;;;;;4996326;28;20034;-62
2021/05/01 01:14:02;;;;;;;11.90;9.23;;;;;;;;;;5001640;28;20455;-61
2021/05/01 01:16:29;;;;;;;11.00;8.73;;;;;;;;;;4994728;28;20046;-61
2021/05/01 01:18:55;;;;;;;11.57;8.77;;;;;;;;;;4984589;28;20123;-61
2021/05/01 01:21:20;;;;;;;11.45;9.27;;;;;;;;;;4995486;28;20478;-61
2021/05/01 01:23:46;;;;;;;11.68;9.40;;;;;;;;;;4988656;28;20027;-62
2021/05/01 01:26:11;;;;;;;11.60;8.90;;;;;;;;;;4996495;28;20045;-61
2021/05/01 01:28:37;;;;;;;12.30;9.48;;;;;;;;;;4983976;28;20506;-61
2021/05/01 01:31:02;;;;;;;12.18;9.23;;;;;;;;;;4996075;28;20033;-62
2021/05/01 01:33:28;;;;;;;11.82;9.27;;;;;;;;;;4993651;28;20131;-62
2021/05/01 01:35:53;;;;;;;12.35;9.30;;;;;;;;;;4996266;28;20119;-61
2021/05/01 01:38:19;;;;;;;11.90;9.45;;;;;;;;;;4995167;28;20542;-61
2021/05/01 01:40:44;;;;;;;12.90;9.60;;;;;;;;;;4993944;28;20046;-62
2021/05/01 01:43:10;;;;;;;12.77;9.65;;;;;;;;;;4995683;28;20035;-62
2021/05/01 01:45:35;;;;;;;11.25;8.68;;;;;;;;;;4995954;28;20026;-61
2021/05/01 01:48:01;;;;;;;11.48;8.35;;;;;;;;;;4995122;28;20079;-62
2021/05/01 01:50:27;;;;;;;10.45;8.30;;;;;;;;;;4995223;28;20042;-61
2021/05/01 01:52:52;;;;;;;11.75;8.75;;;;;;;;;;4993900;28;20117;-62
2021/05/01 01:55:19;;;;;;;11.35;9.18;;;;;;;;;;4995094;28;20035;-61
2021/05/01 01:57:45;;;;;;;11.55;9.02;;;;;;;;;;4999957;28;20128;-62
2021/05/01 02:00:16;;;;;;;12.38;9.13;;;;;;;;;;5010275;28;20027;-61
2021/05/01 02:02:42;;;;;;;10.90;8.90;;;;;;;;;;4993957;28;20085;-61
2021/05/01 02:05:09;;;;;;;12.10;9.20;;;;;;;;;;5000950;28;20039;-62
2021/05/01 02:07:34;;;;;;;11.85;9.10;;;;;;;;;;4994773;28;20034;-62
2021/05/01 02:09:59;;;;;;;11.00;8.77;;;;;;;;;;4994848;28;20082;-61
2021/05/01 02:12:25;;;;;;;10.48;7.97;;;;;;;;;;5001039;28;20057;-61
2021/05/01 02:14:51;;;;;;;11.27;8.57;;;;;;;;;;4996095;28;20035;-62
2021/05/01 02:17:16;;;;;;;10.40;8.18;;;;;;;;;;4987476;28;20046;-61
2021/05/01 02:19:42;;;;;;;11.98;9.52;;;;;;;;;;5009275;28;20066;-61
2021/05/01 02:22:07;;;;;;;11.65;8.98;;;;;;;;;;4995038;28;20554;-61
2021/05/01 02:24:33;;;;;;;7.68;4.63;;;;;;;;;;5000543;28;20089;-61
2021/05/01 02:26:58;;;;;;;9.77;7.13;;;;;;;;;;4994316;28;20053;-61
2021/05/01 02:29:24;;;;;;;9.10;6.90;;;;;;;;;;5000816;28;20031;-61
2021/05/01 02:31:49;;;;;;;8.75;6.68;;;;;;;;;;4996006;28;20035;-61
2021/05/01 02:34:15;;;;;;;10.60;7.80;;;;;;;;;;4992622;28;20900;-61
2021/05/01 02:36:41;;;;;;;9.43;7.40;;;;;;;;;;4994811;28;20058;-61
2021/05/01 02:39:06;;;;;;;11.10;8.75;;;;;;;;;;4994344;28;20418;-61
2021/05/01 02:41:33;;;;;;;12.50;9.55;;;;;;;;;;4993275;28;20054;-62
2021/05/01 02:43:58;;;;;;;11.93;9.35;;;;;;;;;;4994320;28;20037;-61
2021/05/01 02:46:24;;;;;;;10.38;8.30;;;;;;;;;;4993816;28;20033;-61
2021/05/01 02:48:49;;;;;;;11.35;8.77;;;;;;;;;;5017111;23;20054;-61
2021/05/01 02:51:15;;;;;;;12.02;9.43;;;;;;;;;;5015599;28;20070;-62
2021/05/01 02:53:40;;;;;;;12.30;9.95;;;;;;;;;;5015773;28;20030;-62
2021/05/01 02:56:06;;;;;;;13.75;10.20;;;;;;;;;;5019663;28;20041;-62
2021/05/01 02:58:31;;;;;;;12.65;10.15;;;;;;;;;;4998002;28;20034;-61
2021/05/01 03:00:57;;;;;;;13.15;10.18;;;;;;;;;;4993020;28;20042;-61
2021/05/01 03:03:22;;;;;;;12.20;10.35;;;;;;;;;;4993513;28;20038;-61
2021/05/01 03:05:48;;;;;;;11.80;9.43;;;;;;;;;;4993381;28;20035;-61
2021/05/01 03:08:14;;;;;;;9.43;7.70;;;;;;;;;;4999667;28;20498;-62
2021/05/01 03:10:39;;;;;;;10.13;8.02;;;;;;;;;;4994468;28;20038;-61
2021/05/01 03:13:05;;;;;;;10.57;8.40;;;;;;;;;;4995328;28;20330;-61
2021/05/01 03:15:30;;;;;;;10.57;8.43;;;;;;;;;;4999098;28;20121;-62
2021/05/01 03:17:56;;;;;;;11.45;8.85;;;;;;;;;;4998776;28;20414;-62
2021/05/01 03:20:22;;;;;;;11.15;8.80;;;;;;;;;;4993093;28;20042;-62
2021/05/01 03:22:48;;;;;;;10.85;8.38;;;;;;;;;;4984614;28;20022;-62
2021/05/01 03:25:14;;;;;;;12.23;9.25;;;;;;;;;;4985702;28;20129;-62
2021/05/01 03:27:39;;;;;;;11.65;8.57;;;;;;;;;;4995381;28;20038;-61
2021/05/01 03:30:07;;;;;;;11.77;9.20;;;;;;;;;;4994521;28;20035;-61
2021/05/01 03:32:32;;;;;;;12.88;10.00;;;;;;;;;;4986072;28;20049;-62
2021/05/01 03:34:59;;;;;;;6.32;4.60;;;;;;;;;;4995580;28;20083;-62
2021/05/01 03:37:24;;;;;;;4.93;3.83;;;;;;;;;;4995640;28;20080;-61
2021/05/01 03:39:50;;;;;;;9.10;6.50;;;;;;;;;;4997268;28;20561;-62
2021/05/01 03:42:15;;;;;;;11.75;9.38;;;;;;;;;;4995465;28;20470;-61
2021/05/01 03:44:41;;;;;;;12.10;9.50;;;;;;;;;;4996946;28;20486;-62
2021/05/01 03:47:06;;;;;;;11.32;8.85;;;;;;;;;;5001901;28;20038;-62
2021/05/01 03:49:32;;;;;;;11.80;9.30;;;;;;;;;;5002069;28;20034;-61
2021/05/01 03:51:57;;;;;;;11.80;9.32;;;;;;;;;;4998303;28;20125;-62
2021/05/01 03:54:23;;;;;;;8.38;6.47;;;;;;;;;;4995961;28;20185;-61
2021/05/01 03:56:48;;;;;;;6.85;4.95;;;;;;;;;;4995379;28;20054;-62
2021/05/01 03:59:14;;;;;;;5.50;3.50;;;;;;;;;;4999063;28;20030;-61
2021/05/01 04:01:39;;;;;;;4.28;3.40;;;;;;;;;;4995449;28;20133;-61
2021/05/01 04:04:05;;;;;;;4.82;3.60;;;;;;;;;;4997102;28;20094;-61
2021/05/01 04:06:31;;;;;;;5.38;3.83;;;;;;;;;;5010194;28;20059;-61
2021/05/01 04:08:57;;;;;;;3.45;2.92;;;;;;;;;;4994443;28;20030;-61
2021/05/01 04:11:23;;;;;;;5.13;3.40;;;;;;;;;;4985177;28;20038;-61
2021/05/01 04:13:48;;;;;;;5.65;3.80;;;;;;;;;;4977014;28;20034;-62
2021/05/01 04:16:14;;;;;;;4.45;3.03;;;;;;;;;;4995132;28;20042;-61
2021/05/01 04:18:40;;;;;;;3.65;2.85;;;;;;;;;;4995546;28;20043;-61
2021/05/01 04:21:06;;;;;;;5.07;3.78;;;;;;;;;;4995867;28;20497;-61
2021/05/01 04:23:32;;;;;;;5.05;3.50;;;;;;;;;;5001432;28;20065;-61
2021/05/01 04:25:57;;;;;;;3.78;2.78;;;;;;;;;;4995330;28;20043;-61
2021/05/01 04:28:23;;;;;;;5.28;3.75;;;;;;;;;;4995981;28;20031;-61
2021/05/01 04:30:48;;;;;;;5.55;3.97;;;;;;;;;;4994971;28;20038;-62
2021/05/01 04:33:14;;;;;;;4.93;3.45;;;;;;;;;;5001732;28;20038;-62
2021/05/01 04:35:39;;;;;;;3.87;3.20;;;;;;;;;;4997137;28;20803;-61
2021/05/01 04:38:05;;;;;;;4.00;3.13;;;;;;;;;;4993065;28;20042;-61
2021/05/01 04:40:30;;;;;;;4.65;3.40;;;;;;;;;;4996719;28;20039;-61
2021/05/01 04:43:00;;;;;;;4.13;3.08;;;;;;;;;;4994480;28;20080;-61
2021/05/01 04:45:26;;;;;;;4.63;3.50;;;;;;;;;;4999711;28;20035;-62
2021/05/01 04:47:52;;;;;;;4.22;3.20;;;;;;;;;;4994065;28;20034;-61
2021/05/01 04:50:17;;;;;;;3.72;2.83;;;;;;;;;;4967790;28;20039;-62
2021/05/01 04:52:43;;;;;;;4.55;3.10;;;;;;;;;;4994647;28;20796;-61
2021/05/01 04:55:14;;;;;;;3.08;2.47;;;;;;;;;;4994530;28;20038;-61
2021/05/01 04:57:49;;;;;;;2.88;2.50;;;;;;;;;;5009681;28;20098;-61
2021/05/01 05:00:16;;;;;;;3.25;2.80;;;;;;;;;;4976565;28;20113;-61
2021/05/01 05:02:42;;;;;;;2.90;2.45;;;;;;;;;;4978312;28;20644;-61
2021/05/01 05:05:08;;;;;;;2.17;1.58;;;;;;;;;;4994674;28;20042;-62
2021/05/01 05:07:33;;;;;;;3.40;2.40;;;;;;;;;;4999421;28;20034;-61
2021/05/01 05:09:59;;;;;;;2.42;2.22;;;;;;;;;;5000503;28;20074;-61
2021/05/01 05:12:25;;;;;;;3.10;2.58;;;;;;;;;;4994411;28;20061;-61
2021/05/01 05:14:50;;;;;;;2.50;1.98;;;;;;;;;;4999789;28;20394;-61
2021/05/01 05:17:16;;;;;;;3.42;2.53;;;;;;;;;;4993782;28;20100;-61
2021/05/01 05:19:41;;;;;;;2.35;2.15;;;;;;;;;;4999834;28;20034;-61
2021/05/01 05:22:07;;;;;;;2.22;2.00;;;;;;;;;;4994171;28;20038;-61
2021/05/01 05:24:32;;;;;;;3.40;2.65;;;;;;;;;;4995039;28;20045;-61
2021/05/01 05:26:58;;;;;;;4.45;2.92;;;;;;;;;;4995349;28;20034;-61
2021/05/01 05:29:23;;;;;;;3.78;2.78;;;;;;;;;;4991550;28;20046;-61
2021/05/01 05:31:49;;;;;;;3.33;2.65;;;;;;;;;;4994636;28;20043;-61
2021/05/01 05:34:14;;;;;;;2.83;2.35;;;;;;;;;;4998139;28;20078;-62
2021/05/01 05:36:40;;;;;;;3.17;2.30;;;;;;;;;;4993913;28;20869;-61
2021/05/01 05:39:06;;;;;;;2.47;2.17;;;;;;;;;;4998242;28;20035;-62
2021/05/01 05:41:32;;;;;;;3.55;2.83;;;;;;;;;;4992298;28;20042;-61
2021/05/01 05:43:58;;;;;;;3.58;2.78;;;;;;;;;;4992932;28;20040;-61
2021/05/01 05:46:23;;;;;;;2.88;2.45;;;;;;;;;;4998874;28;20031;-61
2021/05/01 05:48:49;;;;;;;3.15;2.75;;;;;;;;;;4996809;28;20042;-61
2021/05/01 05:51:15;;;;;;;2.70;2.40;;;;;;;;;;4993806;28;20051;-60
2021/05/01 05:53:40;;;;;;;3.53;2.78;;;;;;;;;;4994254;28;20476;-61
2021/05/01 05:56:07;;;;;;;3.28;2.75;;;;;;;;;;4993515;28;20471;-60
2021/05/01 05:58:33;;;;;;;3.95;2.83;;;;;;;;;;4998194;28;20046;-60
2021/05/01 06:00:59;;;;;;;3.40;3.00;;;;;;;;;;4995214;28;20061;-60
2021/05/01 06:03:24;;;;;;;4.07;2.95;;;;;;;;;;4994542;28;20675;-61
2021/05/01 06:05:52;;;;;;;3.97;2.97;;;;;;;;;;4992480;28;20621;-61
2021/05/01 06:08:17;;;;;;;3.92;3.00;;;;;;;;;;4993671;28;20090;-60
2021/05/01 06:10:43;;;;;;;3.97;2.90;;;;;;;;;;4998375;28;20089;-61
2021/05/01 06:13:09;;;;;;;3.53;2.80;;;;;;;;;;4992487;28;20228;-61
2021/05/01 06:15:34;;;;;;;2.85;2.35;;;;;;;;;;4991734;28;20037;-61
2021/05/01 06:18:00;;;;;;;3.35;2.67;;;;;;;;;;4992114;28;20043;-61
2021/05/01 06:20:27;;;;;;;4.10;2.72;;;;;;;;;;4993721;28;20030;-61
2021/05/01 06:22:53;;;;;;;4.13;2.75;;;;;;;;;;5010975;28;20073;-61
2021/05/01 06:25:18;;;;;;;2.97;2.38;;;;;;;;;;4983592;28;20041;-61
2021/05/01 06:27:44;;;;;;;3.80;2.85;;;;;;;;;;4992637;28;20545;-61
2021/05/01 06:30:11;;;;;;;3.25;2.58;;;;;;;;;;4993270;28;20027;-61
2021/05/01 06:32:36;;;;;;;3.13;2.67;;;;;;;;;;4995842;28;20042;-61
2021/05/01 06:35:02;;;;;;;3.28;2.70;;;;;;;;;;4993271;28;20047;-61
2021/05/01 06:37:28;;;;;;;3.08;2.63;;;;;;;;;;4993575;28;20438;-61
2021/05/01 06:39:55;;;;;;;3.10;2.70;;;;;;;;;;4995310;28;20031;-61
2021/05/01 06:42:26;;;;;;;3.65;3.10;;;;;;;;;;4993101;28;20038;-61
2021/05/01 06:44:58;;;;;;;3.67;2.63;;;;;;;;;;4975832;28;20050;-61
2021/05/01 06:47:25;;;;;;;3.55;2.90;;;;;;;;;;4983665;28;20432;-60
2021/05/01 06:49:52;;;;;;;3.42;2.60;;;;;;;;;;4994969;28;20037;-60
2021/05/01 06:52:18;;;;;;;3.75;2.90;;;;;;;;;;4994733;28;20035;-60
2021/05/01 06:54:51;;;;;;;3.67;3.08;;;;;;;;;;5008700;28;20046;-60
2021/05/01 06:57:21;;;;;;;5.05;3.00;;;;;;;;;;4993439;28;20046;-61
2021/05/01 06:59:47;;;;;;;4.35;3.13;;;;;;;;;;5012183;28;20034;-61
2021/05/01 07:02:12;;;;;;;4.05;3.05;;;;;;;;;;4979975;28;20030;-61
2021/05/01 07:04:38;;;;;;;3.35;2.65;;;;;;;;;;4998779;28;20034;-60
2021/05/01 07:07:04;;;;;;;4.18;3.25;;;;;;;;;;4985969;28;20039;-61
2021/05/01 07:09:30;;;;;;;5.20;3.40;;;;;;;;;;4986566;28;20172;-60
2021/05/01 07:11:55;;;;;;;4.57;3.25;;;;;;;;;;4998104;28;20999;-60
2021/05/01 07:14:21;;;;;;;4.97;3.55;;;;;;;;;;5002878;28;20057;-60
2021/05/01 07:16:46;;;;;;;3.85;2.97;;;;;;;;;;4993971;28;20042;-60
2021/05/01 07:19:12;;;;;;;4.63;3.13;;;;;;;;;;4997222;28;20046;-60
2021/05/01 07:21:38;;;;;;;4.00;3.13;;;;;;;;;;4985895;28;20076;-60
2021/05/01 07:24:04;;;;;;;4.07;3.00;;;;;;;;;;5002440;28;20037;-60
2021/05/01 07:26:29;;;;;;;4.32;3.00;;;;;;;;;;5002905;28;20038;-60
2021/05/01 07:28:55;;;;;;;4.05;3.08;;;;;;;;;;5002082;28;20031;-60
2021/05/01 07:31:27;;;;;;;3.75;2.90;;;;;;;;;;4965410;28;20069;-60
2021/05/01 07:33:54;;;;;;;4.20;3.33;;;;;;;;;;4985622;28;20554;-60
2021/05/01 07:36:29;;;;;;;4.40;2.80;;;;;;;;;;4996181;28;20113;-60
2021/05/01 07:38:57;;;;;;;3.58;2.90;;;;;;;;;;4978559;28;20046;-62
2021/05/01 07:41:25;;;;;;;3.85;2.80;;;;;;;;;;4995539;28;20038;-61
2021/05/01 07:43:51;;;;;;;3.63;2.72;;;;;;;;;;4981727;28;20091;-61
2021/05/01 07:46:17;;;;;;;4.20;3.28;;;;;;;;;;4977575;28;20463;-62
2021/05/01 07:48:42;;;;;;;3.75;2.90;;;;;;;;;;4983104;28;20046;-61
2021/05/01 07:51:08;;;;;;;4.20;2.72;;;;;;;;;;4986365;28;20035;-62
2021/05/01 07:53:34;;;;;;;3.60;2.95;;;;;;;;;;4997451;28;20332;-60
2021/05/01 07:56:00;;;;;;;10.80;8.40;;;;;;;;;;4995504;28;20395;-61
2021/05/01 07:58:25;;;;;;;3.92;2.85;;;;;;;;;;4996095;28;20022;-61
2021/05/01 08:00:51;;;;;;;10.52;9.02;;;;;;;;;;4993771;28;20038;-61
2021/05/01 08:03:16;;;;;;;11.10;8.88;;;;;;;;;;5001592;28;20041;-61
2021/05/01 08:05:42;;;;;;;4.47;3.00;;;;;;;;;;4997220;28;20034;-61
2021/05/01 08:08:07;;;;;;;10.30;8.90;;;;;;;;;;4994475;28;20450;-60
2021/05/01 08:10:33;;;;;;;11.18;9.15;;;;;;;;;;4996726;28;20046;-60
2021/05/01 08:12:58;;;;;;;10.27;8.95;;;;;;;;;;4996453;28;20038;-61
2021/05/01 08:15:28;;;;;;;11.40;9.05;;;;;;;;;;4996603;28;20563;-61
2021/05/01 08:17:54;;;;;;;10.98;9.10;;;;;;;;;;4996368;28;20053;-61
2021/05/01 08:20:19;;;;;;;10.77;8.95;;;;;;;;;;4995898;28;20098;-61
2021/05/01 08:22:45;;;;;;;3.63;2.72;;;;;;;;;;4996733;28;20034;-61
2021/05/01 08:25:11;;;;;;;4.22;2.90;;;;;;;;;;4994249;28;20093;-61
2021/05/01 08:27:37;;;;;;;11.35;8.90;;;;;;;;;;4978577;28;20054;-61
2021/05/01 08:30:04;;;;;;;11.35;9.65;;;;;;;;;;4994124;28;20077;-61
2021/05/01 08:32:29;;;;;;;10.82;9.23;;;;;;;;;;4995503;28;20573;-61
2021/05/01 08:34:55;;;;;;;10.25;8.52;;;;;;;;;;4996121;28;20034;-61
2021/05/01 08:37:20;;;;;;;10.20;8.55;;;;;;;;;;4995910;28;20038;-61
2021/05/01 08:39:47;;;;;;;11.27;9.43;;;;;;;;;;5001621;28;20045;-61
2021/05/01 08:42:15;;;;;;;3.33;2.83;;;;;;;;;;4995891;28;20041;-61
2021/05/01 08:44:40;;;;;;;11.18;9.30;;;;;;;;;;4996104;28;20548;-61
2021/05/01 08:47:06;;;;;;;3.97;3.03;;;;;;;;;;4977288;28;20042;-61
2021/05/01 08:49:31;;;;;;;3.58;2.50;;;;;;;;;;4994332;28;20027;-61
2021/05/01 08:51:58;;;;;;;10.50;8.55;;;;;;;;;;4984810;28;20097;-61
2021/05/01 08:54:23;;;;;;;2.83;2.45;;;;;;;;;;4993061;28;20613;-60
2021/05/01 08:56:50;;;;;;;8.23;6.25;;;;;;;;;;4993422;28;20230;-61
2021/05/01 08:59:16;;;;;;;3.40;2.53;;;;;;;;;;4982551;28;20058;-61
2021/05/01 09:01:42;;;;;;;4.15;2.70;;;;;;;;;;4993953;28;20034;-61
2021/05/01 09:04:09;;;;;;;2.72;2.50;;;;;;;;;;4999634;28;20067;-61
2021/05/01 09:06:35;;;;;;;6.88;5.32;;;;;;;;;;5003094;28;20035;-61
2021/05/01 09:09:08;;;;;;;11.02;8.85;;;;;;;;;;5000852;28;20038;-61
2021/05/01 09:11:38;;;;;;;7.28;5.65;;;;;;;;;;4995474;28;20139;-60
2021/05/01 09:14:20;;;;;;;3.35;2.30;;;;;;;;;;4995551;28;20049;-61
2021/05/01 09:17:02;;;;;;;;;;;;;;;;;;4993361;28;20043;-61
2021/05/01 09:19:40;;;;;;;2.97;2.50;;;;;;;;;;4993511;28;19959;-61
2021/05/01 09:22:07;;;;;;;3.30;2.22;;;;;;;;;;4992958;28;20117;-61
2021/05/01 09:24:33;;;;;;;3.50;2.28;;;;;;;;;;4991893;28;20026;-61
2021/05/01 09:26:59;;;;;;;11.15;8.73;;;;;;;;;;4982686;28;20034;-61
2021/05/01 09:29:30;;;;;;;11.85;9.80;;;;;;;;;;4999830;28;20443;-61
2021/05/01 09:31:56;;;;;;;6.75;2.92;;;;;;;;;;4992967;28;20117;-61
2021/05/01 09:34:43;;;;;;;8.35;5.90;;;;;;;;;;4984560;28;20046;-61
2021/05/01 09:37:09;;;;;;;11.15;9.45;;;;;;;;;;5010458;28;20047;-62
2021/05/01 09:39:34;;;;;;;10.48;8.88;;;;;;;;;;5011148;28;20570;-61
2021/05/01 09:42:12;;;;;;;10.52;9.32;;;;;;;;;;5000806;28;20034;-62
2021/05/01 09:44:37;;;;;;;10.38;8.60;;;;;;;;;;4977889;28;20042;-62
2021/05/01 09:47:03;;;;;;;10.75;8.93;;;;;;;;;;5009987;28;20039;-61
2021/05/01 09:49:31;;;;;;;10.60;8.95;;;;;;;;;;4983729;28;20392;-61
2021/05/01 09:51:58;;;;;;;9.85;8.50;;;;;;;;;;4995514;28;20034;-61
2021/05/01 09:54:24;;;;;;;10.23;8.10;;;;;;;;;;4977156;28;20073;-61
2021/05/01 09:56:50;;;;;;;9.93;7.85;;;;;;;;;;4993483;28;20065;-60
2021/05/01 09:59:16;;;;;;;10.48;8.63;;;;;;;;;;4993024;28;20065;-61
2021/05/01 10:01:42;;;;;;;10.82;8.57;;;;;;;;;;4984470;28;20104;-60
2021/05/01 10:04:37;;;;;;;10.23;8.98;;;;;;;;;;4968016;28;20039;-61
2021/05/01 10:07:06;;;;;;;11.43;9.38;;;;;;;;;;4996168;28;20046;-61
2021/05/01 10:09:36;;;;;;;11.20;8.95;;;;;;;;;;4994388;28;20125;-59
2021/05/01 10:12:04;;;;;;;12.15;9.75;;;;;;;;;;4993618;28;20035;-61
2021/05/01 10:14:49;;;;;;;12.73;10.43;;;;;;;;;;4993761;28;20042;-61
2021/05/01 10:17:25;;;;;;;6.85;4.20;;;;;;;;;;4992175;28;20162;-61
2021/05/01 10:19:54;;;;;;;4.35;2.95;;;;;;;;;;4986642;28;20039;-61
2021/05/01 10:22:43;;;;;;;11.95;9.68;;;;;;;;;;4976974;28;20564;-60
2021/05/01 10:25:12;;;;;;;6.85;3.95;;;;;;;;;;4993432;28;20566;-60
2021/05/01 10:27:50;;;;;;;12.38;10.73;;;;;;;;;;4995983;28;20037;-61
2021/05/01 10:30:41;;;;;;;12.02;10.63;;;;;;;;;;4999172;28;20034;-60
2021/05/01 10:33:26;;;;;;;12.05;10.07;;;;;;;;;;4991946;28;20057;-60
2021/05/01 10:36:16;;;;;;;12.27;9.65;;;;;;;;;;4993797;28;20047;-60
2021/05/01 10:38:42;;;;;;;11.50;9.65;;;;;;;;;;4992620;28;20045;-59
2021/05/01 10:41:17;;;;;;;13.00;10.35;;;;;;;;;;4994013;28;20074;-59
2021/05/01 10:43:50;;;;;;;13.32;10.38;;;;;;;;;;4995438;28;20090;-59
2021/05/01 10:46:38;;;;;;;12.27;10.00;;;;;;;;;;4976492;28;20063;-60
2021/05/01 10:49:08;;;;;;;11.68;10.10;;;;;;;;;;5004026;28;20069;-60
2021/05/01 10:51:40;;;;;;;12.40;10.55;;;;;;;;;;4993911;28;20034;-62
2021/05/01 10:54:17;;;;;;;12.43;10.00;;;;;;;;;;4994116;28;20097;-62
2021/05/01 10:56:50;;;;;;;11.93;10.00;;;;;;;;;;4992728;28;20532;-60
2021/05/01 10:59:32;;;;;;;12.90;10.15;;;;;;;;;;4994151;28;20030;-60
2021/05/01 11:02:00;;;;;;;11.77;10.05;;;;;;;;;;4993537;28;20118;-61
2021/05/01 11:04:27;;;;;;;11.43;9.52;;;;;;;;;;4993411;28;20521;-61
2021/05/01 11:07:08;;;;;;;11.85;10.07;;;;;;;;;;4993493;28;20157;-60
2021/05/01 11:09:47;;;;;;;12.05;10.07;;;;;;;;;;5001604;28;20031;-60
2021/05/01 11:12:17;;;;;;;12.48;10.10;;;;;;;;;;4995118;28;20046;-60
2021/05/01 11:14:50;;;;;;;12.20;9.82;;;;;;;;;;4992403;28;20094;-60
2021/05/01 11:17:31;;;;;;;11.38;9.18;;;;;;;;;;4993765;28;20630;-59
2021/05/01 11:20:12;;;;;;;11.60;9.82;;;;;;;;;;4992815;28;20043;-60
2021/05/01 11:22:41;;;;;;;11.73;9.57;;;;;;;;;;4993450;28;20031;-60
2021/05/01 11:25:11;;;;;;;11.00;9.13;;;;;;;;;;4993913;28;20031;-60
2021/05/01 11:27:37;;;;;;;11.85;9.43;;;;;;;;;;4994981;28;20047;-60
2021/05/01 11:30:04;;;;;;;11.15;8.93;;;;;;;;;;4993139;28;20030;-59
2021/05/01 11:32:30;;;;;;;10.77;8.88;;;;;;;;;;4994491;28;20584;-59
2021/05/01 11:35:37;;;;;;;10.73;8.13;;;;;;;;;;4976955;28;20067;-60
2021/05/01 11:38:03;;;;;;;9.43;7.82;;;;;;;;;;4992945;28;20050;-59
2021/05/01 11:40:33;;;;;;;9.68;7.13;;;;;;;;;;4993247;28;20038;-60
2021/05/01 11:42:59;;;;;;;9.40;7.22;;;;;;;;;;4994197;28;20126;-60
2021/05/01 11:45:45;;;;;;;9.93;7.75;;;;;;;;;;4984535;28;20045;-60
2021/05/01 11:48:14;;;;;;;9.98;8.10;;;;;;;;;;4992702;28;20046;-60
2021/05/01 11:50:40;;;;;;;9.50;7.43;;;;;;;;;;4980588;28;20041;-60
2021/05/01 11:53:09;;;;;;;9.25;7.55;;;;;;;;;;5001829;28;20046;-60
2021/05/01 11:55:40;;;;;;;9.77;7.80;;;;;;;;;;4997710;28;20126;-60
2021/05/01 11:58:06;;;;;;;10.13;7.78;;;;;;;;;;4996449;28;20049;-60
2021/05/01 12:00:40;;;;;;;8.55;6.82;;;;;;;;;;4996413;28;20035;-60
2021/05/01 12:03:22;;;;;;;8.60;6.63;;;;;;;;;;4995795;28;20147;-60
2021/05/01 12:05:49;;;;;;;;;;;;;;;;;;4996855;28;20352;-60
2021/05/01 12:08:16;;;;;;;9.30;6.72;;;;;;;;;;4995837;28;19918;-60
2021/05/01 12:10:44;;;;;;;8.35;6.30;;;;;;;;;;4993823;28;20023;-60
2021/05/01 12:13:27;;;;;;;7.25;5.50;;;;;;;;;;4996138;28;20100;-60
2021/05/01 12:15:59;;;;;;;9.52;7.63;;;;;;;;;;4996602;28;20045;-60
2021/05/01 12:18:44;;;;;;;;;;;;;;;;;;4994710;28;20281;-60
2021/05/01 12:21:40;;;;;;;10.85;7.45;;;;;;;;;;4996611;28;19944;-60
2021/05/01 12:24:23;;;;;;;8.18;6.90;;;;;;;;;;4990177;28;20503;-59
2021/05/01 12:26:49;;;;;;;8.85;6.72;;;;;;;;;;4989495;28;20046;-60
2021/05/01 12:29:21;;;;;;;8.23;6.60;;;;;;;;;;4995040;28;20510;-60
2021/05/01 12:32:05;;;;;;;8.90;6.70;;;;;;;;;;4996587;28;20581;-60
2021/05/01 12:34:46;;;;;;;9.02;6.40;;;;;;;;;;4996438;28;20043;-60
2021/05/01 12:37:12;;;;;;;8.60;6.38;;;;;;;;;;4995868;28;20050;-60
2021/05/01 12:39:37;;;;;;;7.80;6.05;;;;;;;;;;4996553;28;20085;-59
2021/05/01 12:42:17;;;;;;;8.40;6.40;;;;;;;;;;4997595;28;20117;-60
2021/05/01 12:44:45;;;;;;;8.45;5.80;;;;;;;;;;4986606;28;20039;-60
2021/05/01 12:47:12;;;;;;;6.70;5.30;;;;;;;;;;4979175;28;20074;-60
2021/05/01 12:49:39;;;;;;;7.25;5.53;;;;;;;;;;4993901;28;20034;-59
2021/05/01 12:52:05;;;;;;;7.40;5.57;;;;;;;;;;4995698;28;20552;-59
2021/05/01 12:54:39;;;;;;;7.35;6.00;;;;;;;;;;4995045;28;20034;-59
2021/05/01 12:57:06;;;;;;;7.85;5.40;;;;;;;;;;4995806;28;20046;-59
2021/05/01 12:59:44;;;;;;;9.18;6.05;;;;;;;;;;4995100;28;20038;-59
2021/05/01 13:02:10;;;;;;;7.63;5.60;;;;;;;;;;4993461;28;20038;-59
2021/05/01 13:04:36;;;;;;;8.45;5.30;;;;;;;;;;4996007;28;20521;-59
2021/05/01 13:07:08;;;;;;;6.85;5.05;;;;;;;;;;4996256;28;20035;-59
2021/05/01 13:09:38;;;;;;;7.47;5.32;;;;;;;;;;4994214;28;20041;-59
2021/05/01 13:12:11;;;;;;;6.25;4.60;;;;;;;;;;4978518;28;20062;-60
2021/05/01 13:14:38;;;;;;;6.43;4.90;;;;;;;;;;4996151;28;20125;-59
2021/05/01 13:17:05;;;;;;;6.65;4.63;;;;;;;;;;4994952;28;20173;-59
2021/05/01 13:19:35;;;;;;;5.38;4.32;;;;;;;;;;4996020;28;20082;-59
2021/05/01 13:22:04;;;;;;;6.28;4.32;;;;;;;;;;4978589;28;20030;-59
2021/05/01 13:24:38;;;;;;;4.25;3.70;;;;;;;;;;4995508;28;20038;-59
2021/05/01 13:27:04;;;;;;;5.97;4.18;;;;;;;;;;4994388;28;20038;-59
2021/05/01 13:29:33;;;;;;;5.20;4.10;;;;;;;;;;4993858;28;20046;-59
2021/05/01 13:31:59;;;;;;;6.13;4.05;;;;;;;;;;4994429;28;20030;-59
2021/05/01 13:34:25;;;;;;;5.38;3.80;;;;;;;;;;4995533;28;20039;-59
2021/05/01 13:36:50;;;;;;;5.35;3.95;;;;;;;;;;4994489;28;20053;-59
2021/05/01 13:39:23;;;;;;;3.72;3.00;;;;;;;;;;4996361;28;20030;-59
2021/05/01 13:42:05;;;;;;;4.93;3.65;;;;;;;;;;4993939;28;20046;-60
2021/05/01 13:44:41;;;;;;;4.05;3.40;;;;;;;;;;4992360;28;20030;-59
2021/05/01 13:47:34;;;;;;;5.53;3.70;;;;;;;;;;4993456;28;20070;-59
2021/05/01 13:49:59;;;;;;;3.47;2.88;;;;;;;;;;4993438;28;20051;-60
2021/05/01 13:52:42;;;;;;;5.45;3.22;;;;;;;;;;4995215;28;20116;-59
2021/05/01 13:55:21;;;;;;;4.53;2.90;;;;;;;;;;4992668;28;20060;-59
2021/05/01 13:57:57;;;;;;;4.07;2.55;;;;;;;;;;4994789;28;20054;-60
2021/05/01 14:00:27;;;;;;;3.72;2.80;;;;;;;;;;4982727;28;20046;-60
2021/05/01 14:02:53;;;;;;;3.53;2.92;;;;;;;;;;4991863;28;20042;-60
2021/05/01 14:05:21;;;;;;;3.55;3.00;;;;;;;;;;4991979;28;20489;-60
2021/05/01 14:07:46;;;;;;;4.53;2.80;;;;;;;;;;4992363;28;20037;-60
2021/05/01 14:10:14;;;;;;;3.63;2.72;;;;;;;;;;4999574;28;20615;-60
2021/05/01 14:12:39;;;;;;;4.13;3.00;;;;;;;;;;4993731;28;20034;-60
2021/05/01 14:15:08;;;;;;;3.97;2.97;;;;;;;;;;4983516;28;20502;-60
2021/05/01 14:17:33;;;;;;;4.80;2.90;;;;;;;;;;4981529;28;20058;-60
2021/05/01 14:20:01;;;;;;;4.22;2.88;;;;;;;;;;4994358;28;20044;-60
2021/05/01 14:22:27;;;;;;;3.45;2.80;;;;;;;;;;4994024;28;20608;-60
2021/05/01 14:24:52;;;;;;;3.50;2.90;;;;;;;;;;4996184;28;20046;-60
2021/05/01 14:27:18;;;;;;;4.03;3.20;;;;;;;;;;4994584;28;20077;-60
2021/05/01 14:29:54;;;;;;;3.38;2.50;;;;;;;;;;4993208;28;20801;-60
2021/05/01 14:32:21;;;;;;;5.05;3.00;;;;;;;;;;4994030;28;20045;-60
2021/05/01 14:34:57;;;;;;;4.18;2.83;;;;;;;;;;4995632;28;20039;-59
2021/05/01 14:37:23;;;;;;;3.10;2.40;;;;;;;;;;5008410;28;20053;-60
2021/05/01 14:39:48;;;;;;;3.80;2.70;;;;;;;;;;4993995;28;20061;-60
2021/05/01 14:42:15;;;;;;;3.95;2.88;;;;;;;;;;4983678;28;20046;-60
2021/05/01 14:44:40;;;;;;;4.22;2.50;;;;;;;;;;4999941;28;20089;-59